Time;durP1;ratioP1;P1;durP2;ratioP2;P2;SDS_P1;SDS_P2;PMS_P1;PMS_P2;Temp;Humidity;BMP_temperature;BMP_pressure;BME280_temperature;BME280_humidity;BME280_pressure;Samples;Min_cycle;Max_cycle;Signal;HPM_P1;HPM_P2
2022/01/30 00:00:24;;;;;;;44.42;23.33;;;;;;;-6.46;100.00;93514.13;5031899;28;20087;-79
2022/01/30 00:02:52;;;;;;;43.97;23.35;;;;;;;-6.11;100.00;93553.53;5031847;28;20472;-80
2022/01/30 00:05:19;;;;;;;38.88;21.42;;;;;;;-6.22;100.00;93539.22;5031605;28;20132;-79
2022/01/30 00:07:46;;;;;;;34.95;19.33;;;;;;;-6.13;100.00;93547.81;5030791;28;20049;-79
2022/01/30 00:10:14;;;;;;;34.60;18.77;;;;;;;-6.15;100.00;93532.13;5031175;28;20065;-79
2022/01/30 00:12:46;;;;;;;34.05;18.65;;;;;;;-6.32;100.00;93518.22;5031683;28;20045;-80
2022/01/30 00:15:14;;;;;;;34.05;18.90;;;;;;;-6.35;100.00;93495.94;5031252;28;20172;-80
2022/01/30 00:17:46;;;;;;;36.58;18.92;;;;;;;-5.94;100.00;93547.41;5031460;28;20059;-79
2022/01/30 00:20:19;;;;;;;34.95;18.25;;;;;;;-5.94;100.00;93549.09;5031512;28;20085;-80
2022/01/30 00:22:50;;;;;;;32.75;17.92;;;;;;;-6.10;100.00;93509.31;5031283;28;20479;-80
2022/01/30 00:25:29;;;;;;;34.55;18.48;;;;;;;-6.13;100.00;93505.31;5031309;28;20612;-80
2022/01/30 00:28:03;;;;;;;35.13;18.73;;;;;;;-6.01;100.00;93512.88;5031132;28;20053;-79
2022/01/30 00:30:33;;;;;;;34.97;17.73;;;;;;;-5.96;100.00;93518.38;5031241;28;20500;-79
2022/01/30 00:33:01;;;;;;;34.72;17.77;;;;;;;-5.98;100.00;93510.97;5031210;28;20579;-79
2022/01/30 00:35:27;;;;;;;35.78;18.40;;;;;;;-6.18;100.00;93477.31;5031498;28;20095;-80
2022/01/30 00:37:54;;;;;;;38.10;19.20;;;;;;;-6.09;100.00;93505.91;5013024;28;20042;-79
2022/01/30 00:40:23;;;;;;;40.20;20.00;;;;;;;-6.56;99.68;93473.94;5009908;28;20807;-79
2022/01/30 00:42:49;;;;;;;38.47;20.70;;;;;;;-6.52;100.00;93509.50;5011476;28;20049;-79
2022/01/30 00:45:16;;;;;;;41.28;18.85;;;;;;;-6.52;100.00;93515.31;5011310;28;20050;-79
2022/01/30 00:47:43;;;;;;;35.70;19.00;;;;;;;-6.57;100.00;93507.31;5011108;28;20050;-79
2022/01/30 00:50:10;;;;;;;40.33;20.05;;;;;;;-6.65;100.00;93529.47;5011251;28;20058;-79
2022/01/30 00:52:37;;;;;;;43.65;23.13;;;;;;;-6.87;100.00;93520.84;5030150;28;20053;-79
2022/01/30 00:55:05;;;;;;;37.22;23.02;;;;;;;-6.87;100.00;93521.66;5030997;28;20049;-79
2022/01/30 00:57:33;;;;;;;33.60;18.40;;;;;;;-6.90;100.00;93514.34;5030692;28;20042;-79
2022/01/30 01:00:00;;;;;;;33.92;19.90;;;;;;;-6.84;100.00;93513.94;5030822;28;20072;-79
2022/01/30 01:02:27;;;;;;;39.92;21.40;;;;;;;-6.82;100.00;93503.88;5030903;28;20049;-79
2022/01/30 01:04:53;;;;;;;31.40;19.73;;;;;;;-6.80;100.00;93494.59;5030708;28;20045;-79
2022/01/30 01:07:22;;;;;;;34.00;18.27;;;;;;;-6.67;100.00;93488.81;5030417;28;20049;-79
2022/01/30 01:09:58;;;;;;;25.80;15.70;;;;;;;-6.65;100.00;93487.00;5030734;28;20469;-79
2022/01/30 01:23:41;;;;;;;24.73;13.27;;;;;;;-6.65;100.00;93474.50;4994527;28;20103;-79
2022/01/30 01:26:08;;;;;;;20.08;11.95;;;;;;;-6.71;100.00;93474.00;5029924;28;20066;-79
2022/01/30 01:28:35;;;;;;;20.25;11.57;;;;;;;-6.68;100.00;93467.22;5030016;28;20095;-79
2022/01/30 01:31:04;;;;;;;17.63;10.38;;;;;;;-6.75;100.00;93450.13;5030212;28;20456;-79
2022/01/30 01:33:39;;;;;;;19.90;10.93;;;;;;;-6.66;100.00;93450.44;5030162;28;20045;-79
2022/01/30 01:36:06;;;;;;;22.38;11.43;;;;;;;-6.69;100.00;93448.94;5029766;28;20080;-79
2022/01/30 01:38:33;;;;;;;19.13;10.55;;;;;;;-6.75;100.00;93426.84;5030011;28;20096;-79
2022/01/30 01:41:00;;;;;;;19.15;11.43;;;;;;;-6.76;100.00;93438.53;5030178;28;20169;-79
2022/01/30 01:43:27;;;;;;;19.70;11.35;;;;;;;-6.95;100.00;93418.94;5029798;28;20107;-79
2022/01/30 01:45:57;;;;;;;20.38;12.25;;;;;;;-6.82;100.00;93436.44;5029425;28;20041;-79
2022/01/30 01:48:25;;;;;;;21.55;11.90;;;;;;;-7.15;100.00;93407.72;5029481;28;20045;-78
2022/01/30 01:51:03;;;;;;;24.90;13.00;;;;;;;-6.93;100.00;93431.31;5029655;28;20620;-79
2022/01/30 01:53:30;;;;;;;25.52;12.75;;;;;;;-6.92;100.00;93418.75;5029824;28;20060;-79
2022/01/30 01:55:57;;;;;;;24.05;14.35;;;;;;;-7.02;100.00;93396.06;5029280;28;20041;-79
2022/01/30 01:58:24;;;;;;;27.05;14.38;;;;;;;-6.90;100.00;93398.66;5029916;28;20052;-79
2022/01/30 02:00:51;;;;;;;30.65;17.20;;;;;;;-6.90;100.00;93409.44;5029964;28;20049;-79
2022/01/30 02:03:19;;;;;;;29.88;15.73;;;;;;;-7.12;100.00;93415.81;5029749;28;20490;-79
2022/01/30 02:05:53;;;;;;;28.23;15.55;;;;;;;-7.60;100.00;93420.50;5030019;28;20046;-79
2022/01/30 02:08:29;;;;;;;34.00;19.33;;;;;;;-8.12;100.00;93396.13;5029422;28;20144;-79
2022/01/30 02:11:01;;;;;;;40.85;21.08;;;;;;;-8.03;100.00;93411.41;5029480;28;20053;-79
2022/01/30 02:24:57;;;;;;;48.00;29.35;;;;;;;-8.19;100.00;93407.38;5029495;28;20799;-78
2022/01/30 02:27:27;;;;;;;59.15;31.88;;;;;;;-8.14;100.00;93407.09;5029648;28;20111;-79
2022/01/30 02:29:57;;;;;;;54.42;29.98;;;;;;;-8.10;100.00;93404.31;5029500;28;20053;-79
2022/01/30 02:32:24;;;;;;;60.70;31.00;;;;;;;-8.25;100.00;93378.63;5031937;28;20041;-78
2022/01/30 02:34:51;;;;;;;65.95;35.55;;;;;;;-8.20;100.00;93393.31;5033900;28;20049;-78
2022/01/30 02:37:18;;;;;;;59.78;33.05;;;;;;;-8.54;100.00;93331.38;5033615;28;20042;-79
2022/01/30 02:39:46;;;;;;;61.72;33.10;;;;;;;-8.22;100.00;93366.00;5033349;28;20081;-79
2022/01/30 02:42:18;;;;;;;52.25;30.58;;;;;;;-7.89;100.00;93381.47;5033402;28;20536;-79
2022/01/30 02:44:50;;;;;;;40.13;22.67;;;;;;;-7.75;100.00;93373.16;5033193;28;20041;-79
2022/01/30 02:47:25;;;;;;;29.25;18.42;;;;;;;-7.69;100.00;93379.47;5033234;28;20128;-79
2022/01/30 02:52:41;;;;;;;19.17;12.15;;;;;;;-7.90;100.00;93372.41;5030899;28;20191;-79
2022/01/30 02:55:11;;;;;;;20.67;11.35;;;;;;;-7.85;100.00;93357.16;5033089;28;20076;-79
2022/01/30 02:57:38;;;;;;;19.17;11.02;;;;;;;-7.82;100.00;93339.50;5032926;28;20046;-79
2022/01/30 03:00:09;;;;;;;20.48;12.38;;;;;;;-7.76;100.00;93355.78;5033179;28;20045;-79
2022/01/30 03:02:36;;;;;;;17.85;10.90;;;;;;;-7.99;100.00;93321.41;5032905;28;20136;-79
2022/01/30 03:05:03;;;;;;;15.77;9.63;;;;;;;-7.85;100.00;93347.16;5033083;28;20048;-79
2022/01/30 03:07:30;;;;;;;16.50;10.82;;;;;;;-7.82;100.00;93349.50;5033210;28;20050;-79
2022/01/30 03:09:56;;;;;;;18.23;10.20;;;;;;;-7.80;100.00;93347.69;5032648;28;20041;-79
2022/01/30 03:12:25;;;;;;;17.33;10.45;;;;;;;-7.89;100.00;93333.28;5032634;28;20057;-79
2022/01/30 03:14:52;;;;;;;21.77;12.55;;;;;;;-7.91;100.00;93346.66;5032490;28;20654;-79
2022/01/30 03:17:18;;;;;;;23.02;12.82;;;;;;;-7.94;100.00;93346.03;5032456;28;20436;-79
2022/01/30 03:19:45;;;;;;;20.17;11.45;;;;;;;-7.88;100.00;93344.88;5033068;28;20505;-79
2022/01/30 03:22:12;;;;;;;28.75;14.88;;;;;;;-7.91;100.00;93351.63;5033085;28;20753;-79
2022/01/30 03:24:39;;;;;;;32.63;17.80;;;;;;;-8.05;100.00;93369.94;5032730;28;20061;-79
2022/01/30 03:27:08;;;;;;;74.93;36.95;;;;;;;-8.18;100.00;93359.13;5032655;28;20053;-79
2022/01/30 03:29:38;;;;;;;58.78;30.92;;;;;;;-8.21;100.00;93340.16;5032451;28;20477;-78
2022/01/30 03:32:05;;;;;;;50.83;27.83;;;;;;;-8.15;100.00;93355.66;5032489;28;20052;-78
2022/01/30 03:34:33;;;;;;;57.72;28.88;;;;;;;-8.09;100.00;93367.72;5032529;28;20184;-78
2022/01/30 03:37:00;;;;;;;63.60;32.60;;;;;;;-8.64;100.00;93338.59;5032141;28;20046;-78
2022/01/30 03:39:27;;;;;;;66.32;32.22;;;;;;;-8.46;100.00;93369.03;5032113;28;20053;-79
2022/01/30 03:41:54;;;;;;;52.53;27.83;;;;;;;-8.60;100.00;93374.84;5032172;28;20045;-78
2022/01/30 03:44:20;;;;;;;52.10;30.95;;;;;;;-8.63;100.00;93379.22;5032219;28;20045;-78
2022/01/30 03:46:49;;;;;;;51.92;28.90;;;;;;;-8.57;100.00;93380.56;5032356;28;20053;-78
2022/01/30 03:49:15;;;;;;;46.08;26.88;;;;;;;-8.56;100.00;93382.16;5031972;28;20103;-78
2022/01/30 03:51:42;;;;;;;48.90;26.35;;;;;;;-8.54;100.00;93383.66;5032250;28;20058;-78
2022/01/30 03:54:09;;;;;;;43.38;27.58;;;;;;;-8.82;100.00;93334.66;5032042;28;20115;-78
2022/01/30 03:56:36;;;;;;;51.47;28.80;;;;;;;-8.46;100.00;93383.97;5031946;28;20049;-78
2022/01/30 03:59:03;;;;;;;55.97;30.67;;;;;;;-8.41;100.00;93390.38;5031707;28;20101;-79
2022/01/30 04:01:29;;;;;;;48.03;30.27;;;;;;;-8.41;100.00;93383.72;5031780;28;20045;-79
2022/01/30 04:03:58;;;;;;;44.00;25.75;;;;;;;-8.29;100.00;93381.41;5031528;28;20171;-79
2022/01/30 04:06:25;;;;;;;33.22;19.98;;;;;;;-8.26;100.00;93382.00;5031993;28;20505;-79
2022/01/30 04:08:52;;;;;;;25.00;14.63;;;;;;;-8.49;100.00;93368.41;5031910;28;20093;-78
2022/01/30 04:11:20;;;;;;;24.13;14.68;;;;;;;-8.40;100.00;93369.56;5031880;28;20395;-79
2022/01/30 04:13:47;;;;;;;21.65;13.85;;;;;;;-8.31;100.00;93366.53;5031869;28;20057;-79
2022/01/30 04:16:14;;;;;;;22.48;12.70;;;;;;;-8.29;100.00;93358.97;5031299;28;20401;-79
2022/01/30 04:18:41;;;;;;;20.65;11.35;;;;;;;-8.54;100.00;93341.31;5031681;28;20128;-79
2022/01/30 04:21:09;;;;;;;24.88;13.07;;;;;;;-8.41;100.00;93358.00;5031322;28;20049;-79
2022/01/30 04:23:36;;;;;;;30.33;13.90;;;;;;;-8.64;100.00;93323.66;5031407;28;20131;-79
2022/01/30 04:26:03;;;;;;;22.85;11.98;;;;;;;-8.43;100.00;93338.16;5031548;28;20459;-79
2022/01/30 04:28:30;;;;;;;18.88;9.25;;;;;;;-8.45;100.00;93325.81;5031484;28;20452;-79
2022/01/30 04:30:58;;;;;;;16.98;9.00;;;;;;;-8.35;100.00;93323.56;5031013;28;20493;-80
2022/01/30 04:33:25;;;;;;;17.50;10.23;;;;;;;-8.34;100.00;93305.22;5031143;28;20100;-79
2022/01/30 04:35:52;;;;;;;27.30;14.18;;;;;;;-8.33;100.00;93313.50;5031066;28;20053;-80
2022/01/30 04:38:27;;;;;;;25.08;14.27;;;;;;;-8.46;100.00;93286.03;5031283;28;20049;-80
2022/01/30 05:00:23;;;;;;;45.88;24.23;;;;;;;-8.67;100.00;93293.16;5030253;28;20100;-82
2022/01/30 05:02:58;;;;;;;40.20;21.42;;;;;;;-8.51;100.00;93300.47;5010821;28;20046;-81
2022/01/30 05:08:10;;;;;;;44.55;23.67;;;;;;;-8.46;100.00;93286.81;5030061;28;20068;-81
2022/01/30 05:10:38;;;;;;;55.97;28.70;;;;;;;-8.24;100.00;93300.47;5030301;28;20064;-81
2022/01/30 05:13:10;;;;;;;77.15;35.78;;;;;;;-8.19;100.00;93292.72;5030610;28;20049;-80
2022/01/30 05:15:37;;;;;;;62.03;32.42;;;;;;;-8.20;100.00;93257.03;5029834;28;20088;-80
2022/01/30 05:18:04;;;;;;;71.57;34.97;;;;;;;-7.95;100.00;93259.69;5030205;28;20050;-80
2022/01/30 05:20:32;;;;;;;81.72;38.03;;;;;;;-7.85;100.00;93243.25;5029704;28;20041;-80
2022/01/30 05:23:00;;;;;;;74.53;38.13;;;;;;;-7.80;100.00;93226.31;5029911;28;20076;-80
2022/01/30 05:25:27;;;;;;;59.05;29.92;;;;;;;-7.64;100.00;93230.31;5029219;28;20205;-81
2022/01/30 05:27:56;;;;;;;50.45;25.35;;;;;;;-7.55;100.00;93219.72;5029443;28;20551;-81
2022/01/30 05:30:23;;;;;;;44.90;21.33;;;;;;;-7.47;100.00;93210.91;5026967;28;20119;-81
2022/01/30 05:32:50;;;;;;;42.67;20.15;;;;;;;-7.50;100.00;93194.47;5024748;28;20045;-81
2022/01/30 05:35:17;;;;;;;44.17;21.35;;;;;;;-7.38;100.00;93221.13;5029592;28;20072;-81
2022/01/30 05:37:45;;;;;;;44.00;22.45;;;;;;;-7.71;100.00;93234.06;5020832;28;20041;-79
2022/01/30 05:40:12;;;;;;;54.25;29.02;;;;;;;-8.41;100.00;93226.78;5018569;28;20045;-79
2022/01/30 05:42:39;;;;;;;73.53;35.17;;;;;;;-8.37;100.00;93239.84;5029800;28;20049;-79
2022/01/30 05:45:17;;;;;;;64.53;30.77;;;;;;;-8.25;100.00;93238.28;5030076;28;20057;-79
2022/01/30 05:47:48;;;;;;;83.97;39.65;;;;;;;-8.32;100.00;93266.03;5029766;28;20497;-79
2022/01/30 05:50:16;;;;;;;90.93;38.58;;;;;;;-8.53;100.00;93288.13;5029834;28;20063;-80
2022/01/30 05:52:43;;;;;;;87.30;38.05;;;;;;;-8.24;100.00;93265.56;5029745;28;20547;-79
2022/01/30 05:55:10;;;;;;;88.45;39.45;;;;;;;-7.96;100.00;93253.88;5029750;28;20493;-81
2022/01/30 05:57:37;;;;;;;91.90;39.20;;;;;;;-7.76;100.00;93263.50;5029394;28;20504;-81
2022/01/30 06:00:06;;;;;;;96.97;41.72;;;;;;;-7.54;100.00;93252.97;5029774;28;20046;-80
2022/01/30 06:02:34;;;;;;;98.80;45.38;;;;;;;-7.35;100.00;93247.56;5029508;28;20049;-82
2022/01/30 06:05:01;;;;;;;85.00;40.72;;;;;;;-7.31;100.00;93233.97;5027267;28;20521;-82
2022/01/30 06:07:31;;;;;;;87.35;39.53;;;;;;;-7.23;100.00;93215.22;5009827;28;20046;-82
2022/01/30 06:09:57;;;;;;;81.18;39.15;;;;;;;-6.99;100.00;93242.75;5008516;28;20054;-80
2022/01/30 06:12:24;;;;;;;95.85;44.33;;;;;;;-7.33;100.00;93190.84;5010061;28;20049;-80
2022/01/30 06:14:51;;;;;;;90.63;42.25;;;;;;;-6.93;100.00;93214.06;5010030;28;20069;-81
2022/01/30 06:17:18;;;;;;;92.57;44.05;;;;;;;-7.02;100.00;93232.94;5009365;28;20045;-81
2022/01/30 06:19:46;;;;;;;102.72;45.90;;;;;;;-7.24;100.00;93224.38;5009739;28;20049;-81
2022/01/30 06:22:13;;;;;;;91.50;42.65;;;;;;;-7.10;100.00;93220.97;5009910;28;20049;-81
2022/01/30 06:24:39;;;;;;;118.75;56.50;;;;;;;-7.02;100.00;93218.78;5009918;28;20398;-81
2022/01/30 06:27:06;;;;;;;101.05;48.70;;;;;;;-7.11;100.00;93186.94;5024162;28;20092;-81
2022/01/30 06:29:33;;;;;;;107.22;50.88;;;;;;;-6.99;100.00;93172.84;5029387;28;20056;-82
2022/01/30 06:32:00;;;;;;;107.22;50.67;;;;;;;-6.63;100.00;93212.88;5028863;28;20525;-79
2022/01/30 06:34:28;;;;;;;106.00;48.30;;;;;;;-6.57;100.00;93199.97;5029482;28;20056;-80
2022/01/30 06:36:59;;;;;;;105.03;48.47;;;;;;;-6.52;100.00;93197.94;5029417;28;20057;-89
2022/01/30 06:39:26;;;;;;;100.80;48.67;;;;;;;-6.44;100.00;93188.19;5028918;28;20056;-81
2022/01/30 06:41:53;;;;;;;97.65;46.28;;;;;;;-6.33;100.00;93179.97;5029280;28;20052;-80
2022/01/30 06:44:20;;;;;;;108.00;50.25;;;;;;;-6.24;100.00;93186.00;5028946;28;20490;-80
2022/01/30 06:46:46;;;;;;;104.25;50.20;;;;;;;-6.14;100.00;93188.66;5029429;28;20045;-80
2022/01/30 06:49:13;;;;;;;110.57;56.25;;;;;;;-6.04;100.00;93194.59;5028924;28;20065;-80
2022/01/30 06:51:40;;;;;;;210.25;116.80;;;;;;;-6.14;100.00;93183.66;5028950;28;20049;-80
2022/01/30 06:54:08;;;;;;;172.05;92.40;;;;;;;-6.33;100.00;93159.97;5029172;28;20053;-80
2022/01/30 06:56:35;;;;;;;153.65;83.68;;;;;;;-6.04;100.00;93192.09;5028979;28;20398;-80
2022/01/30 06:59:02;;;;;;;102.70;49.58;;;;;;;-5.82;100.00;93199.72;5029270;28;20084;-81
2022/01/30 07:01:28;;;;;;;88.35;43.83;;;;;;;-5.67;100.00;93195.31;5029231;28;20049;-80
2022/01/30 07:03:55;;;;;;;64.05;36.97;;;;;;;-5.58;100.00;93181.34;5029213;28;20061;-80
2022/01/30 07:06:22;;;;;;;58.45;34.35;;;;;;;-5.56;100.00;93169.53;5029212;28;20057;-80
2022/01/30 07:08:49;;;;;;;57.10;29.77;;;;;;;-5.31;100.00;93175.19;5028832;28;20045;-81
2022/01/30 07:11:18;;;;;;;31.33;18.88;;;;;;;-5.17;100.00;93185.00;5028830;28;20153;-81
2022/01/30 07:13:45;;;;;;;25.63;17.52;;;;;;;-5.25;100.00;93149.69;5029064;28;20115;-82
2022/01/30 07:16:12;;;;;;;33.22;20.42;;;;;;;-5.06;100.00;93145.84;5028845;28;20053;-82
2022/01/30 07:18:38;;;;;;;43.67;25.27;;;;;;;-4.68;100.00;93169.63;5031349;28;20042;-82
2022/01/30 07:21:07;;;;;;;45.65;24.98;;;;;;;-4.53;100.00;93165.19;5032402;28;20053;-83
2022/01/30 07:23:34;;;;;;;42.90;22.92;;;;;;;-4.36;100.00;93170.59;5032721;28;20091;-82
2022/01/30 07:26:01;;;;;;;24.38;14.07;;;;;;;-4.46;100.00;93146.22;5032567;28;20184;-82
2022/01/30 07:28:29;;;;;;;24.30;13.80;;;;;;;-4.09;100.00;93186.88;5032582;28;20045;-82
2022/01/30 07:30:56;;;;;;;18.75;10.57;;;;;;;-3.98;100.00;93183.53;5032083;28;20452;-82
2022/01/30 07:33:23;;;;;;;28.95;16.55;;;;;;;-3.89;100.00;93182.81;5032503;28;20060;-82
2022/01/30 07:35:52;;;;;;;41.20;22.92;;;;;;;-3.95;100.00;93158.19;5032353;28;20049;-82
2022/01/30 07:38:21;;;;;;;21.70;12.15;;;;;;;-4.08;100.00;93123.25;5032448;28;20049;-82
2022/01/30 07:40:48;;;;;;;25.85;14.38;;;;;;;-3.77;100.00;93158.44;5016333;28;20050;-81
2022/01/30 07:43:14;;;;;;;29.67;15.68;;;;;;;-3.53;100.00;93182.47;5012426;28;20050;-81
2022/01/30 07:45:43;;;;;;;27.40;14.38;;;;;;;-3.57;100.00;93181.91;5012300;28;20490;-80
2022/01/30 07:48:09;;;;;;;25.70;14.02;;;;;;;-3.44;100.00;93183.41;5012329;28;20050;-80
2022/01/30 07:50:36;;;;;;;37.63;23.25;;;;;;;-3.37;100.00;93189.56;4973477;28;20134;-79
2022/01/30 07:53:03;;;;;;;32.40;18.77;;;;;;;-3.26;100.00;93188.66;4973288;28;20102;-79
2022/01/30 07:55:30;;;;;;;29.65;17.92;;;;;;;-3.11;100.00;93192.44;4973192;28;20113;-81
2022/01/30 07:57:56;;;;;;;34.47;18.58;;;;;;;-3.22;100.00;93158.16;4972723;28;20053;-80
2022/01/30 08:00:23;;;;;;;23.25;12.90;;;;;;;-3.15;100.00;93162.69;4973256;28;20050;-80
2022/01/30 08:02:51;;;;;;;17.75;11.43;;;;;;;-2.89;100.00;93178.09;4973168;28;20050;-81
2022/01/30 08:05:18;;;;;;;16.75;9.13;;;;;;;-2.99;100.00;93135.34;4974284;28;20097;-80
2022/01/30 08:07:45;;;;;;;15.88;10.38;;;;;;;-2.71;100.00;93157.34;4972908;28;20475;-80
2022/01/30 08:10:12;;;;;;;15.65;9.35;;;;;;;-2.52;100.00;93159.09;4973140;28;21318;-80
2022/01/30 08:12:39;;;;;;;21.70;11.82;;;;;;;-2.23;100.00;93173.41;4972657;28;20057;-81
2022/01/30 08:15:07;;;;;;;23.40;11.55;;;;;;;-1.98;100.00;93156.19;4972822;28;20137;-81
2022/01/30 08:17:36;;;;;;;26.65;14.10;;;;;;;-2.07;100.00;93119.22;4972750;28;20110;-82
2022/01/30 08:20:05;;;;;;;23.35;14.55;;;;;;;-1.64;100.00;93165.78;4972385;28;20092;-81
2022/01/30 08:22:33;;;;;;;19.90;11.05;;;;;;;-1.56;100.00;93165.13;4972439;28;20106;-81
2022/01/30 08:25:00;;;;;;;22.48;12.82;;;;;;;-1.49;100.00;93160.31;4972844;28;20202;-81
2022/01/30 08:27:27;;;;;;;16.77;10.95;;;;;;;-1.34;99.22;93178.31;4989297;28;20097;-80
2022/01/30 08:29:53;;;;;;;17.92;9.73;;;;;;;-1.27;98.45;93176.81;4990886;28;20074;-79
2022/01/30 08:32:20;;;;;;;20.40;10.35;;;;;;;-1.25;97.69;93180.00;4991875;28;20795;-80
2022/01/30 08:34:47;;;;;;;19.02;9.65;;;;;;;-1.25;97.07;93187.56;4991797;28;20502;-81
2022/01/30 08:37:15;;;;;;;19.08;9.32;;;;;;;-1.30;97.20;93172.06;4991484;28;20058;-80
2022/01/30 08:39:42;;;;;;;15.38;8.98;;;;;;;-1.76;97.58;93073.72;4991819;28;20053;-80
2022/01/30 08:42:09;;;;;;;16.98;10.02;;;;;;;-1.06;97.16;93152.34;4991801;28;20054;-79
2022/01/30 08:44:36;;;;;;;14.70;8.90;;;;;;;-1.02;96.03;93161.22;4991655;28;20054;-79
2022/01/30 08:47:03;;;;;;;11.40;6.60;;;;;;;-1.19;95.16;93128.25;4991765;28;20049;-79
2022/01/30 08:49:31;;;;;;;16.23;9.27;;;;;;;-0.87;95.08;93176.66;5013356;28;20049;-79
2022/01/30 08:51:57;;;;;;;15.50;9.63;;;;;;;-0.76;94.30;93173.13;5030770;28;20045;-79
2022/01/30 08:54:26;;;;;;;17.55;8.98;;;;;;;-0.62;93.25;93177.72;5031008;28;20413;-79
2022/01/30 08:56:52;;;;;;;18.45;9.27;;;;;;;-0.43;91.35;93186.91;5030892;28;20049;-79
2022/01/30 08:59:19;;;;;;;23.55;12.45;;;;;;;-0.30;90.84;93178.19;5030473;28;20049;-79
2022/01/30 09:01:46;;;;;;;13.65;8.05;;;;;;;-0.24;88.10;93170.03;5030413;28;20049;-79
2022/01/30 09:04:14;;;;;;;15.48;8.32;;;;;;;-0.09;87.35;93180.41;5030408;28;20047;-79
2022/01/30 09:06:41;;;;;;;15.30;7.85;;;;;;;-0.24;86.03;93127.09;5030742;28;20049;-79
2022/01/30 09:09:07;;;;;;;12.23;6.18;;;;;;;0.23;84.45;93175.78;5030603;28;20049;-79
2022/01/30 09:11:36;;;;;;;12.70;6.57;;;;;;;0.42;84.30;93166.41;5030240;28;20061;-79
2022/01/30 09:14:04;;;;;;;58.85;28.20;;;;;;;0.46;82.32;93165.97;5030637;28;20128;-79
2022/01/30 09:16:31;;;;;;;31.63;17.42;;;;;;;0.51;82.16;93176.41;5030421;28;20448;-79
2022/01/30 09:18:57;;;;;;;27.30;14.77;;;;;;;0.48;82.97;93164.09;5030080;28;20077;-78
2022/01/30 09:21:24;;;;;;;23.23;11.63;;;;;;;0.49;81.71;93167.41;5030412;28;20057;-79
2022/01/30 09:23:51;;;;;;;17.80;8.88;;;;;;;0.55;81.41;93173.59;5030451;28;20091;-78
2022/01/30 09:26:18;;;;;;;16.98;8.35;;;;;;;0.34;80.78;93131.78;5029807;28;20489;-78
2022/01/30 09:28:46;;;;;;;14.73;8.07;;;;;;;0.66;80.78;93160.72;5029894;28;20050;-78
2022/01/30 09:31:13;;;;;;;16.98;9.13;;;;;;;0.70;81.89;93146.84;5029989;28;20053;-78
2022/01/30 09:33:40;;;;;;;20.08;10.27;;;;;;;0.73;81.45;93141.47;5030028;28;20053;-78
2022/01/30 09:36:08;;;;;;;19.45;10.00;;;;;;;0.70;82.21;93134.19;5029793;28;20539;-78
2022/01/30 09:38:35;;;;;;;23.38;10.25;;;;;;;0.67;81.45;93126.91;5029642;28;20349;-78
2022/01/30 09:41:05;;;;;;;20.45;10.98;;;;;;;0.70;81.00;93118.22;5012028;28;20046;-78
2022/01/30 09:43:34;;;;;;;17.95;9.00;;;;;;;0.77;78.58;93124.25;5010238;28;20046;-78
2022/01/30 09:46:02;;;;;;;22.17;11.25;;;;;;;0.78;80.11;93116.53;5010305;28;20387;-78
2022/01/30 09:48:32;;;;;;;19.25;10.20;;;;;;;0.77;78.85;93111.59;5009754;28;20100;-78
2022/01/30 09:51:00;;;;;;;22.80;9.50;;;;;;;0.79;79.32;93109.75;5009893;28;20100;-78
2022/01/30 09:53:27;;;;;;;29.60;12.35;;;;;;;0.87;79.07;93111.47;5009768;28;20050;-78
2022/01/30 09:55:53;;;;;;;20.20;9.50;;;;;;;1.03;78.58;93103.94;5009853;28;20065;-79
2022/01/30 09:58:20;;;;;;;22.38;8.85;;;;;;;1.16;79.41;93095.16;5009961;28;20058;-79
2022/01/30 10:00:47;;;;;;;23.25;10.65;;;;;;;1.23;79.12;93075.84;5010050;28;20053;-78
2022/01/30 10:03:23;;;;;;;21.25;9.93;;;;;;;1.15;78.35;93045.50;5009514;28;20049;-78
2022/01/30 10:06:09;;;;;;;26.80;12.80;;;;;;;1.28;78.50;93055.13;5010008;28;20136;-77
2022/01/30 10:08:41;;;;;;;24.65;12.88;;;;;;;1.27;78.30;93054.38;5009761;28;20057;-78
2022/01/30 10:11:27;;;;;;;24.65;10.82;;;;;;;1.34;77.60;93057.03;5009666;28;20050;-78
2022/01/30 10:14:03;;;;;;;;;;;;;;;1.44;77.19;93045.03;5010173;28;20054;-75
2022/01/30 10:16:33;;;;;;;;;;;;;;;1.39;77.69;93039.66;5010219;28;19992;-75
2022/01/30 10:19:09;;;;;;;17.73;6.75;;;;;;;1.33;76.86;93041.09;5009580;28;19925;-75
2022/01/30 10:21:35;;;;;;;26.63;11.88;;;;;;;1.39;76.10;93046.47;5009373;28;20101;-77
2022/01/30 10:24:21;;;;;;;83.32;37.00;;;;;;;1.51;76.87;93035.06;5009495;28;20054;-77
2022/01/30 10:26:48;;;;;;;;;;;;;;;1.56;75.19;93025.25;5022251;28;20052;-77
2022/01/30 10:29:19;;;;;;;14.65;6.97;;;;;;;1.50;72.12;93014.97;5028516;28;19925;-77
2022/01/30 10:32:04;;;;;;;14.13;6.78;;;;;;;1.62;72.75;93015.44;5029446;28;20471;-78
2022/01/30 10:34:33;;;;;;;132.50;58.73;;;;;;;1.45;72.36;92990.91;5029497;28;20057;-78
2022/01/30 10:37:16;;;;;;;32.38;14.55;;;;;;;1.82;72.11;93001.50;5029035;28;20056;-76
2022/01/30 10:40:04;;;;;;;10.88;5.95;;;;;;;1.81;70.93;92999.91;5022375;28;20054;-76
2022/01/30 10:42:38;;;;;;;44.95;17.48;;;;;;;1.89;68.76;92996.56;5009601;28;20141;-76
2022/01/30 10:45:11;;;;;;;70.75;29.83;;;;;;;2.13;63.96;93017.75;5009701;28;20045;-76
2022/01/30 10:47:39;;;;;;;122.47;52.10;;;;;;;2.25;69.06;92998.72;5009452;28;20422;-76
2022/01/30 10:50:14;;;;;;;76.45;32.67;;;;;;;2.41;66.91;92984.41;5009545;28;20057;-76
2022/01/30 10:52:56;;;;;;;45.70;20.42;;;;;;;2.59;64.50;92986.66;5010300;28;20100;-76
2022/01/30 10:55:35;;;;;;;30.25;13.68;;;;;;;2.64;64.77;92991.25;5013122;28;20042;-76
2022/01/30 10:58:02;;;;;;;190.27;78.32;;;;;;;2.75;63.00;92990.88;5016310;28;20493;-76
2022/01/30 11:00:41;;;;;;;83.25;36.58;;;;;;;2.89;63.30;92980.97;5030882;28;20050;-76
2022/01/30 11:03:09;;;;;;;16.95;9.30;;;;;;;2.92;61.74;92986.50;5030965;28;20072;-77
2022/01/30 11:05:58;;;;;;;28.20;12.27;;;;;;;2.95;62.53;92965.06;5031385;28;20038;-76
2022/01/30 11:08:25;;;;;;;29.13;11.63;;;;;;;3.07;64.52;92978.16;5032791;28;20057;-76
2022/01/30 11:11:17;;;;;;;56.13;33.13;;;;;;;3.15;63.15;92974.78;5032247;28;20591;-76
2022/01/30 11:14:01;;;;;;;129.85;53.80;;;;;;;3.23;63.92;92956.19;5031143;28;20054;-77
2022/01/30 11:19:13;;;;;;;25.92;14.45;;;;;;;3.53;64.26;92957.03;5030940;28;20451;-77
2022/01/30 11:21:42;;;;;;;29.65;12.20;;;;;;;3.41;64.11;92938.06;5030474;28;20060;-77
2022/01/30 11:24:10;;;;;;;19.23;9.57;;;;;;;3.24;64.28;92932.38;5029471;28;20068;-76
2022/01/30 11:26:38;;;;;;;93.30;46.80;;;;;;;3.16;64.03;92931.44;5021452;28;20440;-77
2022/01/30 11:29:08;;;;;;;34.95;15.85;;;;;;;3.18;65.12;92932.09;5031145;28;20423;-77
2022/01/30 11:31:35;;;;;;;14.00;7.43;;;;;;;3.03;64.17;92918.56;5032251;28;21159;-77
2022/01/30 11:34:02;;;;;;;6.95;3.88;;;;;;;2.96;62.93;92938.75;5032077;28;20052;-77
2022/01/30 11:36:30;;;;;;;10.95;6.57;;;;;;;2.92;64.22;92934.97;5032349;28;20045;-76
2022/01/30 11:38:59;;;;;;;16.30;7.55;;;;;;;2.97;63.69;92926.84;5031444;28;20111;-78
2022/01/30 11:41:26;;;;;;;14.57;7.07;;;;;;;2.99;63.88;92923.19;5012271;28;20540;-77
2022/01/30 11:44:27;;;;;;;13.20;7.35;;;;;;;3.10;63.47;92921.97;5012461;28;20399;-80
2022/01/30 11:47:22;;;;;;;17.50;9.45;;;;;;;3.19;62.57;92905.75;5012485;28;20073;-80
2022/01/30 11:50:02;;;;;;;18.25;9.38;;;;;;;3.16;62.93;92878.16;5012250;28;20497;-80
2022/01/30 11:53:01;;;;;;;17.08;9.73;;;;;;;3.39;60.64;92910.34;5012173;28;20049;-80
2022/01/30 11:55:51;;;;;;;10.85;5.47;;;;;;;3.22;63.60;92861.47;5007612;28;20073;-79
2022/01/30 11:58:41;;;;;;;6.35;3.20;;;;;;;3.59;63.36;92886.97;5011949;28;20050;-79
2022/01/30 12:01:36;;;;;;;5.70;3.60;;;;;;;3.62;63.69;92876.47;5012077;28;20164;-79
2022/01/30 12:04:06;;;;;;;14.00;6.18;;;;;;;3.56;63.19;92855.09;5003545;28;20548;-81
2022/01/30 12:06:37;;;;;;;17.85;9.73;;;;;;;3.45;63.82;92822.50;5012034;28;20410;-81
2022/01/30 12:09:20;;;;;;;11.73;5.93;;;;;;;3.79;63.11;92866.13;5011970;28;20430;-82
2022/01/30 12:12:04;;;;;;;12.35;5.40;;;;;;;3.90;63.90;92864.88;5011900;28;20046;-82
2022/01/30 12:14:48;;;;;;;5.97;3.53;;;;;;;3.68;63.57;92847.81;5011467;28;20050;-82
2022/01/30 12:17:15;;;;;;;6.63;3.45;;;;;;;3.56;62.27;92821.31;5010038;28;20057;-83